Terminal Aerodrome Forecast
Issued by NWS Detroit/Pontiac, MI

Home | Current Version | Previous Version | Text Only | Print | Product List | Glossary On
Versions: 1 2 3 4 5 6 7 8 9 10 11 12 13 14 15 16 17 18 19 20 21 22 23 24
000
FTUS43 KDTX 250536
TAFFNT
TAF
KFNT 250536Z 2506/2606 25015G23KT P6SM OVC012
     FM250800 25013G19KT P6SM SCT012 BKN022
     FM251400 24014G27KT 5SM -SHSN OVC025
     FM252000 27015G28KT P6SM -SHSN OVC030
     FM260100 25013G22KT P6SM SCT025 BKN035=

USA.gov is the U.S. government's official web portal to all federal, state and local government web resources and services.